Time;durP1;ratioP1;P1;durP2;ratioP2;P2;SDS_P1;SDS_P2;PMS_P1;PMS_P2;Temp;Humidity;BMP_temperature;BMP_pressure;BME280_temperature;BME280_humidity;BME280_pressure;Samples;Min_cycle;Max_cycle;Signal;HPM_P1;HPM_P2
2021/09/21 00:02:02;;;;;;;1.40;1.00;;;;;;;6.26;81.02;98777.48;112517;1192;74761;-22
2021/09/21 00:04:32;;;;;;;1.50;0.80;;;;;;;6.08;82.04;98779.40;112411;1193;73405;-22
2021/09/21 00:07:00;;;;;;;2.40;0.80;;;;;;;6.44;80.98;98776.28;112465;1192;61930;-22
2021/09/21 00:09:29;;;;;;;1.70;0.90;;;;;;;6.70;79.69;98781.23;112233;1192;61442;-22
2021/09/21 00:11:57;;;;;;;2.70;1.40;;;;;;;6.59;80.05;98783.68;112485;1192;75676;-22
2021/09/21 00:14:26;;;;;;;3.10;1.40;;;;;;;6.40;80.52;98781.92;112276;1192;74364;-22
2021/09/21 00:16:55;;;;;;;1.80;1.10;;;;;;;6.17;81.65;98782.08;112241;1192;73308;-22
2021/09/21 00:19:24;;;;;;;3.00;1.40;;;;;;;6.06;82.01;98785.67;112455;1192;62310;-23
2021/09/21 00:21:52;;;;;;;1.90;1.20;;;;;;;6.44;80.97;98786.07;112515;1192;61390;-22
2021/09/21 00:24:40;;;;;;;2.60;1.40;;;;;;;6.62;79.74;98783.65;112460;1192;75198;-22
2021/09/21 00:27:08;;;;;;;3.90;1.30;;;;;;;6.40;80.51;98788.32;112444;1192;75329;-24
2021/09/21 00:29:39;;;;;;;1.60;1.00;;;;;;;6.21;81.56;98788.83;112517;1192;74037;-24
2021/09/21 00:32:14;;;;;;;2.10;1.10;;;;;;;5.98;81.59;98786.20;112479;1192;60907;-24
2021/09/21 00:34:45;;;;;;;0.90;0.60;;;;;;;6.13;81.96;98786.08;112495;1192;60801;-22
2021/09/21 00:37:14;;;;;;;1.50;1.00;;;;;;;6.52;79.98;98789.36;112490;1192;73999;-22
2021/09/21 00:39:43;;;;;;;1.70;1.10;;;;;;;6.47;80.02;98793.50;112508;1192;74892;-22
2021/09/21 00:42:13;;;;;;;1.00;0.80;;;;;;;6.28;80.55;98792.54;112207;1193;74050;-22
2021/09/21 00:44:41;;;;;;;1.00;0.70;;;;;;;6.02;81.37;98788.40;112174;1193;60816;-22
2021/09/21 00:47:10;;;;;;;1.40;1.00;;;;;;;5.87;82.30;98792.12;112454;1192;60852;-22
2021/09/21 00:49:38;;;;;;;1.80;0.80;;;;;;;6.21;80.39;98783.33;112261;1193;74557;-22
2021/09/21 00:52:06;;;;;;;1.00;0.70;;;;;;;6.40;79.74;98786.20;112451;1184;75659;-22
2021/09/21 00:54:36;;;;;;;0.70;0.70;;;;;;;6.30;80.28;98792.05;112212;1193;73173;-22
2021/09/21 00:57:04;;;;;;;1.10;0.60;;;;;;;6.02;80.88;98795.65;112373;1192;60919;-22
2021/09/21 00:59:32;;;;;;;0.90;0.50;;;;;;;5.80;81.83;98796.20;112165;1192;60834;-22
2021/09/21 01:02:02;;;;;;;0.60;0.50;;;;;;;5.91;81.60;98798.91;112500;1192;74211;-22
2021/09/21 01:04:31;;;;;;;0.90;0.60;;;;;;;6.29;79.67;98788.98;112495;1192;75677;-22
2021/09/21 01:07:00;;;;;;;0.70;0.50;;;;;;;6.25;79.46;98792.59;112469;1192;74183;-22
2021/09/21 01:09:29;;;;;;;0.90;0.50;;;;;;;6.21;80.06;98792.49;112430;1192;60829;-22
2021/09/21 01:12:00;;;;;;;0.80;0.60;;;;;;;6.07;80.45;98789.80;112471;1193;60832;-22
2021/09/21 01:14:29;;;;;;;0.80;0.70;;;;;;;5.78;81.61;98795.09;112484;1191;75308;-22
2021/09/21 01:16:59;;;;;;;1.40;0.60;;;;;;;6.12;80.86;98794.29;112438;1192;75243;-22
2021/09/21 01:19:27;;;;;;;0.60;0.60;;;;;;;6.38;79.78;98791.29;112474;1192;74318;-22
2021/09/21 01:21:56;;;;;;;0.70;0.60;;;;;;;6.18;80.12;98787.70;112510;1191;60875;-22
2021/09/21 01:24:25;;;;;;;1.30;0.60;;;;;;;6.02;81.10;98794.92;112500;1192;60779;-22
2021/09/21 01:26:54;;;;;;;1.00;0.70;;;;;;;5.80;82.17;98796.20;112431;1192;75428;-22
2021/09/21 01:29:23;;;;;;;0.60;0.50;;;;;;;5.82;82.53;98794.35;112255;1192;74714;-22
2021/09/21 01:31:51;;;;;;;0.80;0.70;;;;;;;6.31;80.06;98789.55;112467;1193;73251;-22
2021/09/21 01:34:20;;;;;;;1.00;0.80;;;;;;;6.28;79.28;98787.70;112489;1192;60768;-22
2021/09/21 01:36:49;;;;;;;1.10;0.80;;;;;;;6.08;80.27;98790.41;112493;1192;60902;-22
2021/09/21 01:39:18;;;;;;;2.70;1.30;;;;;;;5.87;81.12;98792.83;112373;1192;73779;-24
2021/09/21 01:41:47;;;;;;;1.70;1.20;;;;;;;5.63;81.47;98790.23;112462;1192;71840;-25
2021/09/21 01:44:17;;;;;;;1.50;1.00;;;;;;;5.78;81.27;98793.05;112507;1192;73170;-23
2021/09/21 01:47:03;;;;;;;2.10;1.10;;;;;;;6.08;79.80;98787.33;112265;1192;60841;-22
2021/09/21 01:49:56;;;;;;;2.60;1.50;;;;;;;6.11;80.35;98793.15;112447;1192;60811;-22
2021/09/21 01:58:18;;;;;;;4.80;1.60;;;;;;;5.65;81.12;98788.04;112409;1192;75688;-24
2021/09/21 02:01:01;;;;;;;1.60;1.10;;;;;;;6.09;79.33;98790.52;112163;1192;61359;-22
2021/09/21 02:03:50;;;;;;;3.40;1.50;;;;;;;5.92;80.16;98794.69;112433;1192;63052;-22
2021/09/21 02:06:33;;;;;;;2.60;1.40;;;;;;;5.83;80.78;98792.36;112234;1193;75136;-23
2021/09/21 02:09:22;;;;;;;2.60;1.60;;;;;;;5.52;82.47;98792.29;112223;1192;76833;-22
2021/09/21 02:11:50;;;;;;;2.00;1.20;;;;;;;5.62;82.76;98796.13;112512;1193;73976;-22
2021/09/21 02:14:22;;;;;;;2.80;1.60;;;;;;;5.85;82.16;98800.55;112383;1192;60807;-22
2021/09/21 02:16:54;;;;;;;2.20;1.90;;;;;;;5.97;81.86;98804.41;112516;1192;60955;-22
2021/09/21 02:19:23;;;;;;;3.30;1.70;;;;;;;5.78;82.37;98800.09;112485;1192;75706;-22
2021/09/21 02:22:10;;;;;;;2.10;1.60;;;;;;;5.53;83.14;98796.21;112340;1192;75632;-23
2021/09/21 02:24:38;;;;;;;1.90;1.30;;;;;;;5.41;83.37;98800.73;112501;1191;72658;-22
2021/09/21 02:27:06;;;;;;;2.90;1.50;;;;;;;5.83;81.26;98797.21;112435;1187;61769;-22
2021/09/21 02:29:35;;;;;;;3.10;1.60;;;;;;;5.86;80.81;98798.17;112501;1192;60769;-22
2021/09/21 02:32:04;;;;;;;2.20;1.20;;;;;;;5.86;81.04;98800.96;112558;1192;75747;-22
2021/09/21 02:34:33;;;;;;;2.20;1.50;;;;;;;5.57;81.89;98797.80;112313;1192;75758;-24
2021/09/21 02:37:01;;;;;;;1.50;1.20;;;;;;;5.46;82.69;98798.52;112435;1191;73591;-23
2021/09/21 02:39:29;;;;;;;1.10;0.90;;;;;;;5.73;82.08;98799.42;112475;1192;61606;-23
2021/09/21 02:42:18;;;;;;;1.60;1.10;;;;;;;6.09;80.46;98796.04;112305;1192;62019;-23
2021/09/21 02:44:46;;;;;;;1.80;1.30;;;;;;;5.81;80.88;98794.22;112492;1191;75348;-23
2021/09/21 02:47:14;;;;;;;2.20;0.90;;;;;;;5.45;81.83;98796.48;112419;1193;75669;-23
2021/09/21 02:49:56;;;;;;;2.00;1.30;;;;;;;5.38;82.17;98800.77;112472;1192;73963;-23
2021/09/21 02:52:24;;;;;;;2.90;1.20;;;;;;;5.36;82.45;98804.52;112450;1191;63091;-23
2021/09/21 02:54:53;;;;;;;0.90;0.60;;;;;;;5.69;81.06;98801.73;112483;1193;60754;-23
2021/09/21 02:57:21;;;;;;;1.50;1.20;;;;;;;5.86;80.43;98809.73;112442;1192;73998;-22
2021/09/21 02:59:49;;;;;;;2.50;1.20;;;;;;;5.77;80.65;98811.35;112542;1192;75805;-24
2021/09/21 03:02:18;;;;;;;3.60;1.20;;;;;;;5.35;82.24;98801.99;112426;1192;73135;-24
2021/09/21 03:04:54;;;;;;;0.80;0.70;;;;;;;5.20;83.36;98805.70;112490;1192;62103;-23
2021/09/21 03:08:10;;;;;;;1.70;0.80;;;;;;;5.59;81.64;98806.87;112461;1192;60810;-23
2021/09/21 03:13:23;;;;;;;2.20;1.40;;;;;;;5.49;81.04;98810.76;112219;1192;75953;-22
2021/09/21 03:18:52;;;;;;;1.80;1.10;;;;;;;5.05;83.02;98811.95;112461;1192;62242;-26
2021/09/21 03:21:23;;;;;;;1.70;0.80;;;;;;;5.46;81.00;98813.66;112430;1192;61490;-24
2021/09/21 03:23:52;;;;;;;1.80;1.00;;;;;;;5.46;80.18;98811.80;112293;1192;74610;-26
2021/09/21 03:26:21;;;;;;;1.40;1.10;;;;;;;5.44;80.36;98816.55;112457;1192;76212;-25
2021/09/21 03:28:49;;;;;;;1.70;1.10;;;;;;;5.29;80.74;98815.27;112461;1192;73102;-24
2021/09/21 03:31:18;;;;;;;0.90;0.80;;;;;;;5.09;81.83;98819.45;112411;1191;60809;-24
2021/09/21 03:33:46;;;;;;;1.90;1.00;;;;;;;5.37;81.19;98819.25;112309;1192;60838;-26
2021/09/21 03:36:15;;;;;;;1.20;0.80;;;;;;;5.65;79.57;98816.62;112500;1192;75131;-25
2021/09/21 03:38:44;;;;;;;2.00;0.90;;;;;;;5.59;79.85;98818.03;112422;1192;75363;-25
2021/09/21 03:41:24;;;;;;;1.80;1.20;;;;;;;5.41;80.65;98815.55;112410;1192;74462;-25
2021/09/21 03:43:52;;;;;;;2.20;0.80;;;;;;;5.22;81.65;98824.65;112441;1191;61327;-23
2021/09/21 03:46:21;;;;;;;0.90;0.80;;;;;;;5.08;82.01;98822.25;112468;1192;60802;-22
2021/09/21 03:48:54;;;;;;;1.50;0.80;;;;;;;5.54;81.22;98824.19;112511;1191;74342;-23
2021/09/21 03:51:23;;;;;;;2.40;0.80;;;;;;;5.77;79.98;98824.11;112492;1192;75599;-23
2021/09/21 03:53:51;;;;;;;1.30;0.60;;;;;;;5.64;80.29;98823.89;112501;1180;74074;-23
2021/09/21 03:56:21;;;;;;;1.00;0.80;;;;;;;5.50;81.07;98827.22;112453;1192;60816;-23
2021/09/21 03:58:50;;;;;;;1.30;1.00;;;;;;;5.32;81.98;98830.43;112481;1192;61876;-23
2021/09/21 04:01:18;;;;;;;0.60;0.60;;;;;;;5.14;82.93;98830.16;112490;1193;74288;-23
2021/09/21 04:03:47;;;;;;;1.40;0.70;;;;;;;5.58;81.48;98833.73;112454;1192;75574;-22
2021/09/21 04:06:16;;;;;;;1.80;1.20;;;;;;;5.87;79.65;98830.55;112522;1192;73855;-22
2021/09/21 04:08:45;;;;;;;1.90;1.40;;;;;;;5.70;80.05;98825.93;112534;1191;60810;-22
2021/09/21 04:11:13;;;;;;;2.00;1.60;;;;;;;5.56;80.82;98827.19;112479;1192;61069;-22
2021/09/21 04:13:42;;;;;;;1.90;1.40;;;;;;;5.30;81.59;98824.14;112338;1192;74312;-22
2021/09/21 04:16:10;;;;;;;1.80;1.10;;;;;;;5.25;82.36;98820.02;112434;1192;75948;-22
2021/09/21 04:18:40;;;;;;;1.70;1.40;;;;;;;5.62;80.54;98823.86;112533;1192;74425;-23
2021/09/21 04:21:28;;;;;;;1.50;1.30;;;;;;;5.78;79.34;98820.90;112474;1191;62336;-23
2021/09/21 04:23:57;;;;;;;1.70;1.30;;;;;;;5.57;80.13;98820.93;112473;1192;60845;-22
2021/09/21 04:26:25;;;;;;;2.20;1.60;;;;;;;5.48;81.05;98820.10;112204;1192;74084;-22
2021/09/21 04:28:54;;;;;;;2.50;1.40;;;;;;;5.34;81.56;98821.35;112491;1192;75732;-22
2021/09/21 04:31:23;;;;;;;2.00;1.30;;;;;;;5.45;81.03;98818.19;112540;1192;72550;-22
2021/09/21 04:33:53;;;;;;;3.30;1.70;;;;;;;5.72;79.48;98817.73;112460;1191;60807;-22
2021/09/21 04:36:22;;;;;;;2.40;1.30;;;;;;;5.88;79.24;98818.90;112170;1193;61630;-22
2021/09/21 04:38:52;;;;;;;2.90;1.60;;;;;;;5.82;79.31;98826.70;112505;1192;72301;-22
2021/09/21 04:41:20;;;;;;;1.80;1.30;;;;;;;5.60;80.30;98823.44;112491;1192;75365;-24
2021/09/21 04:44:07;;;;;;;2.20;1.40;;;;;;;5.47;80.45;98823.63;112449;1192;73399;-24
2021/09/21 04:46:36;;;;;;;2.00;1.20;;;;;;;5.79;79.48;98819.87;112503;1191;60819;-24
2021/09/21 04:49:04;;;;;;;2.40;1.40;;;;;;;6.10;78.18;98822.87;112494;1192;60923;-24
2021/09/21 04:51:33;;;;;;;5.40;1.60;;;;;;;6.01;78.67;98821.18;112516;1192;74164;-24
2021/09/21 04:54:02;;;;;;;2.40;1.70;;;;;;;5.77;79.14;98820.98;112481;1192;75575;-22
2021/09/21 04:56:30;;;;;;;2.80;1.80;;;;;;;5.58;80.81;98822.04;112474;1192;73024;-22
2021/09/21 04:58:59;;;;;;;4.50;1.40;;;;;;;5.38;80.86;98817.31;112489;1191;63714;-22
2021/09/21 05:01:27;;;;;;;1.90;1.50;;;;;;;5.80;80.34;98822.19;112564;1189;60768;-22
2021/09/21 05:03:56;;;;;;;1.90;1.20;;;;;;;6.07;78.67;98821.98;112520;1192;75323;-22
2021/09/21 05:06:25;;;;;;;1.80;1.30;;;;;;;6.03;78.82;98821.91;112472;1192;74512;-23
2021/09/21 05:09:14;;;;;;;2.40;1.70;;;;;;;5.76;79.49;98818.00;112491;1191;74292;-23
2021/09/21 05:12:04;;;;;;;3.50;2.10;;;;;;;5.52;80.53;98824.48;112423;1192;62837;-24
2021/09/21 05:14:32;;;;;;;1.30;1.00;;;;;;;5.59;80.44;98824.07;112199;1192;61457;-22
2021/09/21 05:17:14;;;;;;;2.40;1.50;;;;;;;6.10;78.70;98820.95;112397;1191;74454;-23
2021/09/21 05:19:42;;;;;;;2.30;1.70;;;;;;;6.13;78.25;98823.55;112494;1192;75739;-22
2021/09/21 05:22:31;;;;;;;2.30;1.80;;;;;;;5.96;78.74;98822.18;112411;1192;74244;-23
2021/09/21 05:25:00;;;;;;;4.40;1.80;;;;;;;5.85;79.33;98823.94;112447;1192;61107;-22
2021/09/21 05:27:29;;;;;;;1.00;0.80;;;;;;;5.83;80.32;98825.95;112500;1192;61714;-23
2021/09/21 05:30:17;;;;;;;2.80;2.00;;;;;;;6.31;78.18;98817.54;112499;1192;76479;-22
2021/09/21 05:32:46;;;;;;;1.80;1.20;;;;;;;6.47;77.54;98826.92;112492;1192;74589;-24
2021/09/21 05:35:15;;;;;;;2.80;1.60;;;;;;;6.44;77.85;98828.38;112510;1191;73931;-23
2021/09/21 05:37:43;;;;;;;10.80;1.60;;;;;;;6.21;78.22;98825.20;112423;1192;61898;-24
2021/09/21 05:40:16;;;;;;;2.20;1.70;;;;;;;6.04;78.49;98824.45;112551;1191;61726;-24
2021/09/21 05:42:46;;;;;;;1.70;1.20;;;;;;;5.81;79.68;98826.06;112260;1192;75207;-21
2021/09/21 05:45:14;;;;;;;3.40;1.90;;;;;;;6.24;78.78;98827.64;112524;1191;74622;-22
2021/09/21 05:47:42;;;;;;;1.90;1.50;;;;;;;6.40;77.58;98825.36;112431;1191;74384;-22
2021/09/21 05:50:11;;;;;;;2.20;1.50;;;;;;;6.22;77.19;98821.90;112322;1191;60864;-22
2021/09/21 05:52:40;;;;;;;1.90;1.40;;;;;;;5.89;78.26;98833.46;112503;1192;61696;-22
2021/09/21 05:55:10;;;;;;;3.50;1.60;;;;;;;5.77;78.90;98833.20;112464;1192;73771;-22
2021/09/21 05:57:51;;;;;;;4.20;1.40;;;;;;;5.64;78.90;98829.61;112201;1192;77064;-22
2021/09/21 06:00:19;;;;;;;1.60;1.30;;;;;;;6.02;77.98;98838.38;112468;1192;73297;-22
2021/09/21 06:02:48;;;;;;;1.70;1.30;;;;;;;6.22;77.39;98842.20;112452;1191;60826;-22
2021/09/21 06:05:17;;;;;;;1.80;1.00;;;;;;;6.08;77.94;98847.15;112276;1192;60866;-24
2021/09/21 06:07:49;;;;;;;2.30;1.30;;;;;;;5.95;78.03;98844.82;112510;1192;75372;-22
2021/09/21 06:10:21;;;;;;;2.10;1.40;;;;;;;5.81;78.68;98852.10;112227;1192;75808;-22
2021/09/21 06:12:49;;;;;;;2.10;1.40;;;;;;;5.73;79.27;98848.13;112248;1193;74086;-22
2021/09/21 06:15:20;;;;;;;3.60;1.10;;;;;;;6.16;78.09;98851.25;112275;1192;61674;-22
2021/09/21 06:18:08;;;;;;;1.60;1.10;;;;;;;6.14;77.07;98842.38;112474;1192;61805;-22
2021/09/21 06:20:40;;;;;;;1.20;1.00;;;;;;;5.86;77.41;98845.42;112284;1192;75065;-22
2021/09/21 06:23:28;;;;;;;2.40;1.40;;;;;;;5.75;78.43;98852.65;112460;1192;75933;-23
2021/09/21 06:25:58;;;;;;;1.40;0.90;;;;;;;5.46;79.06;98850.04;112469;1192;74219;-22
2021/09/21 06:28:26;;;;;;;3.60;1.20;;;;;;;5.92;78.36;98855.67;112424;1192;61661;-22
2021/09/21 06:30:55;;;;;;;1.70;1.20;;;;;;;6.19;76.91;98857.73;112475;1192;60793;-22
2021/09/21 06:33:24;;;;;;;1.40;1.20;;;;;;;5.99;77.61;98859.21;112484;1192;75156;-22
2021/09/21 06:35:53;;;;;;;2.00;1.20;;;;;;;5.85;78.43;98858.58;112510;1191;75393;-22
2021/09/21 06:38:21;;;;;;;1.60;1.00;;;;;;;5.65;78.47;98847.41;112492;1192;74061;-22
2021/09/21 06:40:49;;;;;;;0.60;0.60;;;;;;;5.58;79.47;98857.84;112458;1191;62325;-22
2021/09/21 06:43:18;;;;;;;1.10;0.70;;;;;;;6.09;77.74;98863.40;112399;1191;60758;-22
2021/09/21 06:45:47;;;;;;;2.60;0.80;;;;;;;6.42;76.96;98865.19;112441;1192;73799;-22
2021/09/21 06:48:16;;;;;;;1.70;0.80;;;;;;;6.42;76.18;98867.46;112562;1191;74809;-24
2021/09/21 06:50:45;;;;;;;1.20;0.70;;;;;;;6.31;76.80;98871.42;112498;1191;72942;-22
2021/09/21 06:53:13;;;;;;;1.70;1.20;;;;;;;6.04;76.88;98868.73;112525;1192;60794;-22
2021/09/21 06:55:42;;;;;;;1.70;0.90;;;;;;;5.74;77.86;98865.60;112237;1192;60802;-22
2021/09/21 06:58:10;;;;;;;2.10;1.20;;;;;;;6.04;77.52;98876.64;112465;1192;75148;-22
2021/09/21 07:00:40;;;;;;;1.80;0.80;;;;;;;6.27;76.49;98880.36;112212;1192;75700;-22
2021/09/21 07:03:09;;;;;;;1.70;0.80;;;;;;;6.35;76.39;98879.45;112227;1192;74194;-22
2021/09/21 07:05:38;;;;;;;1.60;1.10;;;;;;;6.12;77.17;98878.37;112454;1192;60777;-22
2021/09/21 07:08:06;;;;;;;1.20;0.90;;;;;;;6.03;77.88;98883.77;112478;1191;61935;-22
2021/09/21 07:10:35;;;;;;;1.10;0.90;;;;;;;6.00;78.40;98888.48;112468;1191;75175;-22
2021/09/21 07:13:04;;;;;;;1.30;0.80;;;;;;;6.25;78.05;98888.06;112263;1192;75718;-22
2021/09/21 07:15:33;;;;;;;1.40;0.90;;;;;;;6.62;76.46;98885.11;112482;1192;74037;-23
2021/09/21 07:18:01;;;;;;;1.50;1.00;;;;;;;6.69;76.21;98878.75;112512;1192;60903;-22
2021/09/21 07:20:30;;;;;;;1.70;1.10;;;;;;;6.43;76.62;98886.33;112506;1191;60933;-22
2021/09/21 07:22:58;;;;;;;1.20;1.00;;;;;;;6.29;77.21;98884.02;112259;1192;74253;-22
2021/09/21 07:25:27;;;;;;;3.80;0.90;;;;;;;6.15;77.89;98885.98;112280;1192;74819;-22
2021/09/21 07:27:57;;;;;;;1.30;0.90;;;;;;;6.16;77.39;98879.66;112223;1192;73846;-22
2021/09/21 07:30:34;;;;;;;1.70;0.80;;;;;;;6.53;74.88;98870.17;112477;1192;60769;-22
2021/09/21 07:33:05;;;;;;;0.80;0.70;;;;;;;6.48;75.98;98885.48;112319;1192;61229;-22
2021/09/21 07:35:33;;;;;;;0.90;0.70;;;;;;;6.50;76.13;98889.20;112495;1192;75248;-22
2021/09/21 07:38:03;;;;;;;1.60;1.00;;;;;;;6.44;77.12;98893.39;112479;1191;75614;-24
2021/09/21 07:40:35;;;;;;;1.20;0.90;;;;;;;6.22;77.48;98882.60;112493;1191;73149;-23
2021/09/21 07:43:05;;;;;;;1.00;0.90;;;;;;;6.33;76.29;98889.06;112456;1191;60803;-22
2021/09/21 07:45:35;;;;;;;2.10;0.60;;;;;;;6.57;76.28;98893.39;112257;1192;61417;-22
2021/09/21 07:48:04;;;;;;;0.70;0.60;;;;;;;6.64;75.86;98884.78;112526;1192;75514;-22
2021/09/21 07:50:32;;;;;;;0.90;0.60;;;;;;;6.44;77.18;98890.92;112200;1192;75610;-22
2021/09/21 07:53:02;;;;;;;1.20;0.90;;;;;;;6.37;77.09;98891.06;112490;1192;72634;-23
2021/09/21 07:55:32;;;;;;;0.90;0.70;;;;;;;6.22;77.14;98884.61;112489;1192;63655;-22
2021/09/21 07:58:01;;;;;;;1.30;0.60;;;;;;;6.65;76.01;98884.68;112308;1192;61566;-22
2021/09/21 08:00:30;;;;;;;1.10;0.50;;;;;;;6.88;74.41;98881.80;112463;1192;73992;-22
2021/09/21 08:02:59;;;;;;;4.20;0.70;;;;;;;6.86;74.39;98890.01;112254;1192;74703;-22
2021/09/21 08:05:28;;;;;;;0.80;0.60;;;;;;;6.95;73.83;98895.34;112520;1193;73857;-21
2021/09/21 08:07:57;;;;;;;1.20;0.90;;;;;;;6.70;74.40;98893.66;112636;1192;60892;-22
2021/09/21 08:10:26;;;;;;;1.00;0.80;;;;;;;6.58;74.53;98890.52;112391;1192;60703;-22
2021/09/21 08:13:09;;;;;;;0.90;0.60;;;;;;;6.51;74.62;98897.40;112263;1192;75154;-21
2021/09/21 08:15:37;;;;;;;0.80;0.50;;;;;;;6.80;74.65;98897.17;112344;1192;75485;-22
2021/09/21 08:18:07;;;;;;;0.60;0.50;;;;;;;6.94;73.27;98885.51;112280;1193;73906;-22
2021/09/21 08:20:55;;;;;;;0.90;0.70;;;;;;;6.65;74.89;98895.77;112400;1192;60832;-22
2021/09/21 08:23:24;;;;;;;0.80;0.70;;;;;;;6.67;74.03;98895.95;112269;1192;61811;-22
2021/09/21 08:25:53;;;;;;;0.70;0.60;;;;;;;6.39;75.07;98900.97;112320;1192;74226;-22
2021/09/21 08:28:27;;;;;;;0.80;0.50;;;;;;;6.31;74.88;98898.67;112322;1192;75590;-25
2021/09/21 08:31:03;;;;;;;0.50;0.40;;;;;;;6.53;75.39;98911.39;112251;1192;74103;-23
2021/09/21 08:35:01;;;;;;;0.70;0.70;;;;;;;7.24;71.79;98903.69;110735;1209;600663;-25
2021/09/21 08:37:33;;;;;;;0.50;0.50;;;;;;;6.94;72.88;98915.90;111490;1196;60777;-24
2021/09/21 08:40:06;;;;;;;0.70;0.60;;;;;;;6.85;73.06;98914.98;111713;1196;61486;-23
2021/09/21 08:42:35;;;;;;;1.50;0.80;;;;;;;6.74;73.92;98917.44;111573;1200;73303;-23
2021/09/21 08:45:04;;;;;;;1.60;0.70;;;;;;;6.66;73.73;98907.41;111683;1196;74721;-23
2021/09/21 08:47:33;;;;;;;0.90;0.50;;;;;;;6.50;73.96;98912.79;111488;1199;73390;-23
2021/09/21 08:50:04;;;;;;;0.60;0.40;;;;;;;6.91;73.12;98908.18;111648;1199;60910;-23
2021/09/21 08:52:33;;;;;;;1.60;0.50;;;;;;;7.26;72.64;98910.58;112201;1193;61679;-23
2021/09/21 08:55:01;;;;;;;1.00;0.50;;;;;;;7.53;71.56;98913.73;112130;1193;72260;-23
2021/09/21 08:57:30;;;;;;;0.90;0.50;;;;;;;7.46;72.14;98911.09;112169;1193;76191;-23
2021/09/21 08:59:58;;;;;;;0.80;0.60;;;;;;;7.10;72.45;98905.46;111764;1197;73041;-23
2021/09/21 09:02:27;;;;;;;0.70;0.50;;;;;;;6.98;72.47;98914.24;112130;1194;60804;-23
2021/09/21 09:05:04;;;;;;;0.80;0.60;;;;;;;6.74;73.13;98917.58;112157;1193;60739;-23
2021/09/21 09:07:36;;;;;;;;;;;;;;;6.70;74.03;98923.36;112125;1196;74916;-23
2021/09/21 09:10:06;;;;;;;1.40;0.70;;;;;;;7.24;72.40;98930.59;111993;1194;75374;-25
2021/09/21 09:12:37;;;;;;;0.40;0.40;;;;;;;7.43;71.17;98929.63;112042;1193;74297;-24
2021/09/21 09:15:10;;;;;;;1.50;0.60;;;;;;;7.27;71.19;98929.19;112108;1194;60806;-23
2021/09/21 09:17:40;;;;;;;3.70;0.60;;;;;;;7.05;72.20;98925.66;111947;1193;60898;-23
2021/09/21 09:20:09;;;;;;;1.50;0.70;;;;;;;7.01;72.82;98929.21;112141;1197;71265;-22
2021/09/21 09:22:38;;;;;;;1.00;0.50;;;;;;;6.86;73.40;98928.70;112005;1196;75822;-23
2021/09/21 09:25:07;;;;;;;1.10;0.50;;;;;;;6.55;75.04;98931.27;112167;1193;73296;-23
2021/09/21 09:27:46;;;;;;;2.00;0.70;;;;;;;6.72;75.08;98940.31;112089;1193;60867;-23
2021/09/21 09:30:23;;;;;;;1.20;0.60;;;;;;;6.96;74.35;98936.48;112098;1194;60826;-22
2021/09/21 09:33:03;;;;;;;0.50;0.50;;;;;;;6.90;74.48;98937.41;112085;1196;74591;-23
2021/09/21 09:35:34;;;;;;;0.90;0.80;;;;;;;6.66;74.85;98938.10;112145;1193;75687;-22
2021/09/21 09:38:10;;;;;;;1.10;0.70;;;;;;;6.48;76.32;98938.66;112088;1193;74035;-23
2021/09/21 09:40:51;;;;;;;1.80;0.60;;;;;;;6.47;75.83;98938.52;112066;1193;60867;-23
2021/09/21 09:43:26;;;;;;;0.60;0.50;;;;;;;6.76;75.01;98946.59;111842;1194;60803;-23
2021/09/21 09:45:56;;;;;;;0.50;0.50;;;;;;;7.46;73.58;98944.95;112042;1194;73910;-23
2021/09/21 09:48:24;;;;;;;1.00;0.50;;;;;;;7.72;71.68;98943.34;112065;1193;75591;-22
2021/09/21 09:50:56;;;;;;;1.30;0.60;;;;;;;7.41;71.86;98944.67;112147;1194;74045;-22
2021/09/21 09:53:26;;;;;;;0.50;0.50;;;;;;;7.13;72.89;98943.13;111769;1196;61158;-22
2021/09/21 09:55:57;;;;;;;1.50;0.60;;;;;;;6.95;74.86;98946.91;112101;1197;61377;-24
2021/09/21 09:58:25;;;;;;;0.70;0.50;;;;;;;6.95;74.78;98946.40;112133;1196;73506;-22
2021/09/21 10:00:57;;;;;;;0.50;0.40;;;;;;;7.22;74.75;98950.91;112125;1196;74696;-22
2021/09/21 10:03:26;;;;;;;0.80;0.50;;;;;;;7.60;71.65;98938.43;112173;1192;73868;-22
2021/09/21 10:05:55;;;;;;;0.70;0.40;;;;;;;7.52;71.06;98947.14;112256;1193;60805;-23
2021/09/21 10:08:24;;;;;;;1.60;0.50;;;;;;;7.32;72.34;98950.59;112103;1193;60803;-24
2021/09/21 10:11:12;;;;;;;0.60;0.50;;;;;;;7.22;73.38;98958.72;112128;1194;74956;-24
2021/09/21 10:13:42;;;;;;;0.50;0.50;;;;;;;7.01;73.76;98952.35;112099;1193;75553;-24
2021/09/21 10:16:31;;;;;;;1.10;0.60;;;;;;;6.99;74.88;98957.85;112072;1193;73075;-22
2021/09/21 10:19:00;;;;;;;0.80;0.70;;;;;;;6.89;74.42;98959.23;112224;1193;61830;-22
2021/09/21 10:21:40;;;;;;;0.80;0.70;;;;;;;7.37;73.05;98959.08;112188;1193;60793;-22
2021/09/21 10:24:10;;;;;;;0.60;0.60;;;;;;;7.36;73.32;98966.38;112178;1193;74141;-23
2021/09/21 10:26:40;;;;;;;1.60;0.90;;;;;;;7.11;73.86;98962.92;112090;1193;74197;-20
2021/09/21 10:29:09;;;;;;;0.60;0.50;;;;;;;6.92;74.93;98977.95;112102;1195;72809;-23
2021/09/21 10:31:40;;;;;;;1.10;0.80;;;;;;;6.65;75.38;98972.35;112118;1194;60834;-21
2021/09/21 10:34:15;;;;;;;1.30;0.70;;;;;;;6.58;76.57;98979.57;112209;1193;60879;-19
2021/09/21 10:36:53;;;;;;;0.80;0.50;;;;;;;6.89;74.91;98972.85;112098;1195;75845;-24
2021/09/21 10:39:22;;;;;;;1.20;0.70;;;;;;;6.97;74.35;98977.98;112124;1193;76257;-24
2021/09/21 10:42:02;;;;;;;1.00;0.90;;;;;;;6.96;74.50;98977.36;111825;1177;74344;-23
2021/09/21 10:44:31;;;;;;;1.00;0.60;;;;;;;7.06;74.93;98986.39;112098;1194;60796;-23
2021/09/21 10:47:09;;;;;;;2.20;0.90;;;;;;;7.05;75.08;98989.58;112057;1193;60827;-23
2021/09/21 10:50:12;;;;;;;0.80;0.70;;;;;;;6.98;74.86;98984.46;112098;1193;75441;-27
2021/09/21 10:52:41;;;;;;;0.60;0.50;;;;;;;7.47;73.74;98990.86;112074;1193;74470;-25
2021/09/21 10:55:14;;;;;;;0.90;0.70;;;;;;;7.51;72.48;98987.25;112173;1194;74017;-24
2021/09/21 10:57:45;;;;;;;2.20;0.80;;;;;;;7.37;73.55;98999.11;112060;1194;62176;-23
2021/09/21 11:00:18;;;;;;;3.80;0.80;;;;;;;6.90;74.58;98990.05;112063;1193;60834;-23
2021/09/21 11:02:54;;;;;;;3.80;1.00;;;;;;;6.74;75.19;98997.29;112118;1193;71605;-23
2021/09/21 11:05:26;;;;;;;0.50;0.50;;;;;;;6.82;75.21;98994.39;112057;1196;74717;-23
2021/09/21 11:08:00;;;;;;;0.60;0.60;;;;;;;7.23;74.05;98995.40;112020;1193;72985;-23
2021/09/21 11:40:27;;;;;;;1.80;0.90;;;;;;;6.42;76.18;99009.92;112111;1190;60812;-22
2021/09/21 11:42:58;;;;;;;4.30;0.90;;;;;;;6.68;75.56;99011.47;112103;1193;73201;-22
2021/09/21 11:45:27;;;;;;;1.20;0.70;;;;;;;6.93;75.02;99014.69;111824;1196;75792;-22
2021/09/21 11:47:55;;;;;;;3.30;0.80;;;;;;;6.91;75.31;99015.50;112098;1197;74266;-22
2021/09/21 11:50:29;;;;;;;1.00;0.80;;;;;;;6.73;76.14;99018.42;112065;1195;60817;-22
2021/09/21 11:52:59;;;;;;;4.30;0.90;;;;;;;6.60;76.67;99020.47;111987;1195;60913;-22
2021/09/21 11:56:12;;;;;;;1.90;0.90;;;;;;;6.62;77.25;99028.11;111851;1195;73507;-22
2021/09/21 11:58:41;;;;;;;1.30;0.80;;;;;;;7.04;75.16;99027.27;111713;1196;75642;-22
2021/09/21 12:02:00;;;;;;;3.00;0.90;;;;;;;7.14;74.60;99025.05;112044;1196;73843;-23
2021/09/21 12:04:31;;;;;;;1.00;0.60;;;;;;;7.04;75.01;99027.75;112098;1196;60829;-22
2021/09/21 12:07:19;;;;;;;1.50;1.10;;;;;;;7.04;74.74;99020.00;112075;1196;62787;-22
2021/09/21 12:09:48;;;;;;;2.50;0.90;;;;;;;6.94;75.17;99025.80;112129;1196;73323;-22
2021/09/21 12:12:21;;;;;;;2.30;0.90;;;;;;;7.08;75.79;99034.95;112080;1193;75855;-23
2021/09/21 12:14:56;;;;;;;2.80;0.90;;;;;;;7.53;73.57;99021.17;112467;1193;74089;-21
2021/09/21 12:17:27;;;;;;;1.10;0.90;;;;;;;7.71;72.80;99031.14;112063;1193;60903;-22
2021/09/21 12:19:59;;;;;;;4.20;1.30;;;;;;;7.54;72.90;99028.20;112389;1192;60915;-22
2021/09/21 12:22:28;;;;;;;1.90;1.00;;;;;;;7.20;74.18;99037.56;112111;1193;74787;-22
2021/09/21 12:25:16;;;;;;;2.00;1.20;;;;;;;6.80;74.91;99028.52;112337;1192;76766;-22
2021/09/21 12:27:45;;;;;;;1.70;1.40;;;;;;;6.58;76.00;99032.82;112201;1193;74138;-22
2021/09/21 12:30:14;;;;;;;1.40;1.00;;;;;;;6.59;76.46;99033.84;112440;1192;62294;-24
2021/09/21 12:32:43;;;;;;;1.40;1.00;;;;;;;6.85;75.70;99044.92;112160;1193;60834;-22
2021/09/21 12:35:11;;;;;;;1.20;1.10;;;;;;;7.03;75.41;99048.02;112110;1193;73550;-22
2021/09/21 12:37:41;;;;;;;1.70;1.00;;;;;;;6.97;75.67;99044.09;112463;1193;75663;-21
2021/09/21 12:40:14;;;;;;;1.40;1.00;;;;;;;6.79;76.17;99046.98;112016;1193;74065;-22